Time;durP1;ratioP1;P1;durP2;ratioP2;P2;SDS_P1;SDS_P2;PMS_P1;PMS_P2;Temp;Humidity;BMP_temperature;BMP_pressure;BME280_temperature;BME280_humidity;BME280_pressure;Samples;Min_cycle;Max_cycle;Signal;HPM_P1;HPM_P2
2021/11/10 00:00:56;;;;;;;24.02;9.82;;;29.90;81.90;;;;;;5146470;27;20027;-44
2021/11/10 00:03:22;;;;;;;18.08;8.98;;;29.90;81.90;;;;;;5146217;27;20037;-47
2021/11/10 00:05:49;;;;;;;20.75;9.57;;;29.90;81.70;;;;;;5146175;27;20042;-49
2021/11/10 00:08:15;;;;;;;19.58;10.02;;;29.90;81.50;;;;;;5146223;27;20019;-51
2021/11/10 00:10:42;;;;;;;21.60;8.85;;;29.90;81.50;;;;;;5145944;27;20019;-48
2021/11/10 00:13:20;;;;;;;17.48;9.10;;;29.90;81.20;;;;;;5146094;27;20068;-43
2021/11/10 00:15:49;;;;;;;17.63;8.77;;;29.80;81.20;;;;;;5144802;27;20064;-52
2021/11/10 00:18:16;;;;;;;16.73;9.00;;;29.80;81.10;;;;;;5145923;27;20019;-46
2021/11/10 00:20:45;;;;;;;17.92;8.35;;;29.80;81.00;;;;;;5145746;27;20019;-48
2021/11/10 00:23:15;;;;;;;20.92;8.90;;;29.80;80.80;;;;;;5145797;27;20045;-48
2021/11/10 00:25:41;;;;;;;20.27;9.13;;;29.80;80.80;;;;;;5145546;27;20067;-46
2021/11/10 00:28:09;;;;;;;19.75;8.77;;;29.70;80.70;;;;;;5145790;27;20240;-48
2021/11/10 00:30:35;;;;;;;16.65;8.43;;;29.70;80.60;;;;;;5145602;27;20064;-49
2021/11/10 00:33:02;;;;;;;16.08;8.43;;;29.70;81.10;;;;;;5145469;27;20055;-50
2021/11/10 00:35:29;;;;;;;17.02;8.48;;;29.70;80.40;;;;;;5145660;27;20011;-45
2021/11/10 00:37:55;;;;;;;20.75;8.63;;;29.70;80.80;;;;;;5145420;27;20027;-45
2021/11/10 00:40:22;;;;;;;21.95;9.65;;;29.70;80.20;;;;;;5145449;27;20011;-45
2021/11/10 00:42:49;;;;;;;16.60;9.27;;;29.70;80.20;;;;;;5146062;27;20095;-44
2021/11/10 00:45:16;;;;;;;21.08;9.27;;;29.70;80.10;;;;;;5145436;27;20052;-49
2021/11/10 00:47:43;;;;;;;23.00;10.38;;;29.70;80.10;;;;;;5145668;27;20018;-44
2021/11/10 00:50:10;;;;;;;25.67;9.60;;;29.70;80.10;;;;;;5144192;27;20031;-43
2021/11/10 00:52:37;;;;;;;25.58;9.68;;;29.70;80.00;;;;;;5145268;27;20046;-42
2021/11/10 00:55:05;;;;;;;18.13;8.88;;;29.70;79.90;;;;;;5145674;27;20018;-43
2021/11/10 00:57:32;;;;;;;18.23;8.98;;;29.70;80.30;;;;;;5145713;27;20037;-45
2021/11/10 00:59:59;;;;;;;22.52;9.38;;;29.60;79.70;;;;;;5144076;27;20023;-45
2021/11/10 01:02:28;;;;;;;20.10;9.02;;;29.60;79.60;;;;;;5145738;27;20312;-45
2021/11/10 01:04:55;;;;;;;19.00;8.95;;;29.60;79.60;;;;;;5145343;27;20030;-45
2021/11/10 01:07:22;;;;;;;19.00;9.27;;;29.60;79.50;;;;;;5145597;27;20039;-45
2021/11/10 01:09:54;;;;;;;21.65;9.60;;;29.60;79.60;;;;;;5145170;27;20059;-50
2021/11/10 01:12:21;;;;;;;19.35;9.05;;;29.60;79.40;;;;;;5144521;27;20026;-53
2021/11/10 01:14:48;;;;;;;20.52;7.78;;;29.50;79.30;;;;;;5145400;27;20026;-52
2021/11/10 01:17:14;;;;;;;20.88;9.38;;;29.50;79.20;;;;;;5145582;27;20031;-51
2021/11/10 01:19:41;;;;;;;17.73;8.93;;;29.50;79.10;;;;;;5145245;27;20026;-50
2021/11/10 01:22:08;;;;;;;24.48;9.88;;;29.50;79.10;;;;;;5145390;27;20023;-49
2021/11/10 01:24:35;;;;;;;20.63;9.43;;;29.50;79.00;;;;;;5144834;27;20087;-55
2021/11/10 01:27:02;;;;;;;16.35;8.93;;;29.40;78.90;;;;;;5144395;28;20090;-48
2021/11/10 01:29:29;;;;;;;24.73;9.45;;;29.40;78.70;;;;;;5145087;27;20312;-49
2021/11/10 01:31:55;;;;;;;17.35;8.98;;;29.40;78.90;;;;;;5145304;27;20031;-52
2021/11/10 01:34:22;;;;;;;26.10;10.10;;;29.40;78.80;;;;;;5143689;28;20015;-50
2021/11/10 01:36:48;;;;;;;23.75;11.07;;;29.40;78.80;;;;;;5145147;28;20018;-48
2021/11/10 01:39:15;;;;;;;19.83;11.18;;;29.40;78.90;;;;;;5144659;28;20015;-52
2021/11/10 01:41:44;;;;;;;17.42;10.35;;;29.40;78.90;;;;;;5145176;28;20068;-51
2021/11/10 01:44:26;;;;;;;18.63;11.23;;;29.40;78.80;;;;;;5144911;28;20054;-55
2021/11/10 01:46:55;;;;;;;22.38;10.27;;;29.40;78.80;;;;;;5145028;28;20334;-51
2021/11/10 01:49:22;;;;;;;19.95;9.93;;;29.40;78.80;;;;;;5144655;28;20027;-47
2021/11/10 01:51:52;;;;;;;18.30;9.90;;;29.30;78.80;;;;;;5142950;28;20039;-46
2021/11/10 01:54:21;;;;;;;23.63;9.70;;;29.30;78.70;;;;;;5144885;27;20007;-48
2021/11/10 01:56:49;;;;;;;20.50;9.88;;;29.30;78.70;;;;;;5144992;27;20019;-52
2021/11/10 01:59:28;;;;;;;18.30;8.82;;;29.30;78.80;;;;;;5144465;27;20022;-48
2021/11/10 02:01:55;;;;;;;18.23;8.45;;;29.30;78.80;;;;;;5145308;27;20027;-53
2021/11/10 02:04:23;;;;;;;31.95;9.10;;;29.30;78.70;;;;;;5148236;27;20019;-48
2021/11/10 02:06:50;;;;;;;23.25;9.07;;;29.30;78.50;;;;;;5147563;27;20215;-49
2021/11/10 02:09:17;;;;;;;15.82;8.30;;;29.10;78.60;;;;;;5148504;27;20019;-49
2021/11/10 02:11:43;;;;;;;18.00;9.07;;;29.00;78.60;;;;;;5148388;27;20019;-52
2021/11/10 02:14:10;;;;;;;13.82;7.85;;;28.90;79.00;;;;;;5148316;27;20019;-48
2021/11/10 02:16:40;;;;;;;16.25;8.18;;;28.70;79.40;;;;;;5148561;27;20024;-48
2021/11/10 02:19:07;;;;;;;21.05;8.50;;;28.60;79.50;;;;;;5148217;27;20078;-52
2021/11/10 02:21:36;;;;;;;22.90;9.00;;;28.60;80.10;;;;;;5148489;27;20028;-47
2021/11/10 02:24:03;;;;;;;20.58;8.02;;;28.70;80.00;;;;;;5147436;27;20033;-49
2021/11/10 02:26:30;;;;;;;20.77;8.85;;;28.70;79.90;;;;;;5148266;27;20029;-49
2021/11/10 02:28:57;;;;;;;19.88;8.50;;;28.80;79.70;;;;;;5148327;27;20049;-47
2021/11/10 02:31:24;;;;;;;13.93;7.88;;;28.80;79.60;;;;;;5148266;27;20027;-46
2021/11/10 02:33:51;;;;;;;17.67;8.45;;;28.90;79.50;;;;;;5147968;27;20015;-49
2021/11/10 02:36:18;;;;;;;20.20;8.35;;;28.90;79.30;;;;;;5148204;27;20019;-46
2021/11/10 02:38:44;;;;;;;14.20;7.43;;;28.90;79.20;;;;;;5148014;27;20023;-49
2021/11/10 02:41:11;;;;;;;16.63;7.57;;;28.90;79.10;;;;;;5147073;27;20047;-49
2021/11/10 02:43:38;;;;;;;15.70;7.97;;;28.90;79.00;;;;;;5148036;27;20241;-47
2021/11/10 02:46:05;;;;;;;20.13;7.80;;;28.90;78.90;;;;;;5147777;27;20027;-46
2021/11/10 02:48:32;;;;;;;16.60;8.00;;;28.90;78.80;;;;;;5147917;27;20069;-46
2021/11/10 02:50:58;;;;;;;20.40;8.20;;;28.90;78.60;;;;;;5148017;27;20038;-50
2021/11/10 02:53:25;;;;;;;12.05;7.95;;;28.90;78.50;;;;;;5147514;27;20057;-50
2021/11/10 02:55:55;;;;;;;9.82;6.70;;;28.90;78.50;;;;;;5147730;27;20042;-45
2021/11/10 02:58:31;;;;;;;14.00;7.60;;;29.00;78.50;;;;;;5148270;27;20015;-47
2021/11/10 03:01:06;;;;;;;14.95;7.65;;;28.90;78.30;;;;;;5149147;27;20023;-48
2021/11/10 03:03:33;;;;;;;17.05;8.07;;;28.90;78.20;;;;;;5147707;27;20019;-50
2021/11/10 03:06:00;;;;;;;13.05;7.55;;;28.90;78.00;;;;;;5147307;27;20435;-46
2021/11/10 03:08:26;;;;;;;15.02;7.72;;;28.90;78.10;;;;;;5147342;27;20082;-49
2021/11/10 03:10:53;;;;;;;9.35;7.43;;;28.90;78.00;;;;;;5147156;27;20023;-47
2021/11/10 03:13:20;;;;;;;16.70;7.07;;;28.90;78.00;;;;;;5146391;27;20018;-46
2021/11/10 03:15:47;;;;;;;11.18;7.55;;;28.90;77.90;;;;;;5147200;27;20007;-45
2021/11/10 03:18:14;;;;;;;11.85;6.85;;;28.90;77.70;;;;;;5147147;27;20019;-49
2021/11/10 03:20:41;;;;;;;16.15;7.18;;;28.90;77.70;;;;;;5147249;27;20010;-45
2021/11/10 03:23:08;;;;;;;11.65;7.00;;;28.90;77.80;;;;;;5147055;27;20027;-55
2021/11/10 03:25:36;;;;;;;15.55;8.00;;;28.90;78.20;;;;;;5146836;27;20086;-47
2021/11/10 03:28:06;;;;;;;13.43;7.85;;;28.90;77.70;;;;;;5146977;27;20086;-47
2021/11/10 03:30:32;;;;;;;13.63;7.47;;;28.90;77.60;;;;;;5146798;27;20019;-50
2021/11/10 03:32:59;;;;;;;12.45;7.50;;;28.90;77.60;;;;;;5147248;27;20031;-47
2021/11/10 03:35:26;;;;;;;11.50;7.78;;;28.90;77.60;;;;;;5145994;27;20015;-44
2021/11/10 03:37:53;;;;;;;13.25;7.40;;;28.90;77.60;;;;;;5147280;27;20023;-48
2021/11/10 03:40:20;;;;;;;14.18;7.63;;;28.90;77.60;;;;;;5146516;27;20083;-47
2021/11/10 03:42:46;;;;;;;10.65;7.45;;;28.80;77.50;;;;;;5147480;27;20027;-46
2021/11/10 03:45:13;;;;;;;16.67;7.25;;;28.90;77.60;;;;;;5146553;27;20022;-46
2021/11/10 03:47:39;;;;;;;13.57;7.53;;;28.90;77.50;;;;;;5147155;27;20069;-47
2021/11/10 03:50:07;;;;;;;14.40;7.43;;;28.80;77.40;;;;;;5146646;27;20019;-49
2021/11/10 03:52:34;;;;;;;12.98;7.35;;;28.80;77.40;;;;;;5146729;27;20043;-46
2021/11/10 03:55:03;;;;;;;11.82;7.50;;;28.80;77.50;;;;;;5146585;27;20376;-46
2021/11/10 03:57:30;;;;;;;12.10;7.22;;;28.80;77.90;;;;;;5147053;27;20034;-51
2021/11/10 03:59:57;;;;;;;10.45;7.45;;;28.80;77.40;;;;;;5146354;27;20023;-51
2021/11/10 04:02:24;;;;;;;15.35;7.20;;;28.80;77.30;;;;;;5146790;27;20043;-50
2021/11/10 04:04:50;;;;;;;10.02;7.18;;;28.80;77.40;;;;;;5146234;27;20026;-49
2021/11/10 04:07:17;;;;;;;17.55;7.95;;;28.80;77.40;;;;;;5146629;27;20031;-49
2021/11/10 04:09:43;;;;;;;12.70;6.97;;;28.80;77.50;;;;;;5146158;27;20043;-53
2021/11/10 04:12:10;;;;;;;12.52;7.00;;;28.80;77.60;;;;;;5146840;27;20258;-49
2021/11/10 04:14:37;;;;;;;11.73;7.25;;;28.80;77.60;;;;;;5146382;27;20082;-51
2021/11/10 04:17:05;;;;;;;12.05;7.18;;;28.80;77.80;;;;;;5146422;27;20097;-44
2021/11/10 04:19:32;;;;;;;11.68;7.13;;;28.80;77.80;;;;;;5145883;27;20015;-46
2021/11/10 04:21:59;;;;;;;13.93;6.88;;;28.80;77.90;;;;;;5144919;27;20034;-43
2021/11/10 04:24:26;;;;;;;12.27;7.68;;;28.70;77.80;;;;;;5145585;27;20011;-44
2021/11/10 04:26:53;;;;;;;15.80;7.55;;;28.80;78.00;;;;;;5145925;27;20200;-44
2021/11/10 04:29:19;;;;;;;15.43;7.38;;;28.70;77.80;;;;;;5145867;27;20042;-50
2021/11/10 04:31:46;;;;;;;16.20;7.40;;;28.70;77.90;;;;;;5145465;27;20019;-47
2021/11/10 04:34:12;;;;;;;10.35;7.10;;;28.70;77.90;;;;;;5145587;27;20050;-44
2021/11/10 04:36:39;;;;;;;14.07;7.05;;;28.70;77.90;;;;;;5145617;27;20195;-52
2021/11/10 04:39:06;;;;;;;9.75;6.88;;;28.70;78.00;;;;;;5145263;27;20112;-55
2021/11/10 04:41:32;;;;;;;11.88;7.30;;;28.70;77.90;;;;;;5145672;27;20022;-44
2021/11/10 04:43:59;;;;;;;14.30;7.75;;;28.70;77.90;;;;;;5145763;27;20023;-53
2021/11/10 04:46:33;;;;;;;12.23;7.82;;;28.70;77.80;;;;;;5145313;27;20023;-47
2021/11/10 04:49:00;;;;;;;12.93;7.72;;;28.70;77.90;;;;;;5145391;27;20023;-49
2021/11/10 04:51:28;;;;;;;11.90;7.85;;;28.70;77.80;;;;;;5145326;27;20055;-42
2021/11/10 04:53:57;;;;;;;20.30;8.20;;;28.70;77.80;;;;;;5145063;27;20064;-42
2021/11/10 04:56:24;;;;;;;10.77;7.60;;;28.70;78.00;;;;;;5145398;27;20041;-52
2021/11/10 04:58:51;;;;;;;13.32;7.25;;;28.70;78.00;;;;;;5145112;27;20082;-44
2021/11/10 05:01:26;;;;;;;12.68;7.28;;;28.70;78.00;;;;;;5145051;27;20051;-46
2021/11/10 05:03:54;;;;;;;13.15;7.13;;;28.70;78.10;;;;;;5145122;27;20083;-50
2021/11/10 05:06:21;;;;;;;11.30;7.03;;;28.60;78.00;;;;;;5145040;27;20038;-48
2021/11/10 05:08:49;;;;;;;15.75;7.32;;;28.60;78.00;;;;;;5145224;27;20019;-50
2021/11/10 05:11:16;;;;;;;10.57;7.25;;;28.60;78.10;;;;;;5144982;27;20035;-43
2021/11/10 05:13:43;;;;;;;14.52;7.57;;;28.60;78.10;;;;;;5145096;27;20015;-45
2021/11/10 05:16:09;;;;;;;13.80;7.47;;;28.60;78.10;;;;;;5144748;27;20023;-47
2021/11/10 05:18:36;;;;;;;14.18;7.60;;;28.60;78.10;;;;;;5144792;27;20018;-46
2021/11/10 05:21:03;;;;;;;16.33;7.75;;;28.60;78.20;;;;;;5144704;27;20076;-50
2021/11/10 05:23:29;;;;;;;11.52;6.90;;;28.60;78.20;;;;;;5144719;28;20268;-44
2021/11/10 05:25:56;;;;;;;13.68;7.15;;;28.60;78.40;;;;;;5144892;27;20022;-42
2021/11/10 05:28:22;;;;;;;12.55;7.72;;;28.60;78.50;;;;;;5144747;27;20135;-44
2021/11/10 05:30:49;;;;;;;14.75;7.43;;;28.60;78.50;;;;;;5144504;27;20339;-51
2021/11/10 05:33:16;;;;;;;18.27;7.75;;;28.60;78.60;;;;;;5145042;27;20180;-45
2021/11/10 05:35:42;;;;;;;11.88;7.53;;;28.60;79.30;;;;;;5144715;27;20053;-45
2021/11/10 05:38:09;;;;;;;11.55;7.45;;;28.60;78.90;;;;;;5147677;27;20022;-41
2021/11/10 05:40:36;;;;;;;14.82;7.90;;;28.60;78.90;;;;;;5148868;27;20052;-42
2021/11/10 05:43:05;;;;;;;10.00;6.85;;;28.60;79.00;;;;;;5148938;27;20023;-45
2021/11/10 05:45:32;;;;;;;12.27;7.10;;;28.60;78.90;;;;;;5148621;27;20022;-46
2021/11/10 05:47:59;;;;;;;15.80;7.38;;;28.60;79.00;;;;;;5148734;27;20360;-45
2021/11/10 05:50:26;;;;;;;11.98;7.00;;;28.60;79.00;;;;;;5148861;27;20030;-42
2021/11/10 05:52:53;;;;;;;14.23;7.25;;;28.60;79.10;;;;;;5148670;27;20047;-46
2021/11/10 05:55:22;;;;;;;11.77;7.10;;;28.60;79.10;;;;;;5148737;27;20018;-47
2021/11/10 05:57:50;;;;;;;14.02;7.55;;;28.50;79.20;;;;;;5149184;27;20026;-49
2021/11/10 06:00:17;;;;;;;13.93;7.60;;;28.50;79.30;;;;;;5148502;27;20019;-51
2021/11/10 06:02:44;;;;;;;13.23;7.32;;;28.50;79.30;;;;;;5149001;27;20055;-43
2021/11/10 06:05:14;;;;;;;11.98;7.38;;;28.50;79.40;;;;;;5148591;27;20124;-43
2021/11/10 06:07:41;;;;;;;13.27;7.40;;;28.50;79.30;;;;;;5148710;27;20031;-48
2021/11/10 06:10:08;;;;;;;12.32;7.22;;;28.50;79.40;;;;;;5148342;27;20308;-51
2021/11/10 06:12:34;;;;;;;11.80;7.05;;;28.50;79.40;;;;;;5148672;27;20023;-50
2021/11/10 06:15:01;;;;;;;12.55;6.90;;;28.50;79.60;;;;;;5148272;27;20018;-52
2021/11/10 06:17:27;;;;;;;11.20;7.43;;;28.50;79.60;;;;;;5148761;27;20027;-50
2021/11/10 06:19:54;;;;;;;12.98;7.22;;;28.50;79.60;;;;;;5148251;27;20030;-43
2021/11/10 06:22:20;;;;;;;8.15;7.13;;;28.50;79.60;;;;;;5148425;27;20127;-43
2021/11/10 06:24:47;;;;;;;11.35;7.55;;;28.50;79.60;;;;;;5148232;27;20026;-55
2021/11/10 06:27:14;;;;;;;12.52;7.55;;;28.50;79.50;;;;;;5148544;27;20308;-46
2021/11/10 06:29:40;;;;;;;14.50;7.35;;;28.50;79.50;;;;;;5148156;27;20200;-48
2021/11/10 06:32:07;;;;;;;14.35;6.85;;;28.40;79.50;;;;;;5148455;27;20019;-46
2021/11/10 06:34:34;;;;;;;11.32;7.47;;;28.50;79.60;;;;;;5147989;27;20070;-52
2021/11/10 06:37:00;;;;;;;13.32;6.97;;;28.40;79.50;;;;;;5148167;27;20030;-49
2021/11/10 06:39:27;;;;;;;12.63;6.75;;;28.40;79.60;;;;;;5147819;27;20015;-44
2021/11/10 06:41:54;;;;;;;11.02;6.95;;;28.40;79.60;;;;;;5148116;27;20180;-43
2021/11/10 06:44:20;;;;;;;17.25;7.38;;;28.50;79.70;;;;;;5147477;27;20029;-51
2021/11/10 06:46:47;;;;;;;11.02;7.03;;;28.40;79.60;;;;;;5148076;27;20094;-52
2021/11/10 06:49:13;;;;;;;16.23;7.88;;;28.40;79.60;;;;;;5147526;27;20211;-46
2021/11/10 06:51:40;;;;;;;16.00;7.43;;;28.40;79.60;;;;;;5138774;27;20122;-50
2021/11/10 06:54:07;;;;;;;9.98;6.88;;;28.40;79.70;;;;;;5147577;27;20342;-51
2021/11/10 06:56:34;;;;;;;13.32;7.45;;;28.40;79.70;;;;;;5147848;27;20039;-48
2021/11/10 06:59:02;;;;;;;15.57;7.22;;;28.40;79.60;;;;;;5147495;27;20074;-50
2021/11/10 07:01:28;;;;;;;9.15;6.85;;;28.40;79.50;;;;;;5147849;27;20027;-47
2021/11/10 07:03:55;;;;;;;13.77;7.68;;;28.40;79.60;;;;;;5147385;27;20015;-45
2021/11/10 07:06:22;;;;;;;9.73;6.85;;;28.40;79.70;;;;;;5147352;27;20023;-48
2021/11/10 07:08:49;;;;;;;10.93;7.43;;;28.40;79.70;;;;;;5147526;27;20057;-50
2021/11/10 07:11:16;;;;;;;11.20;7.20;;;28.40;79.70;;;;;;5147315;27;20027;-47
2021/11/10 07:13:43;;;;;;;14.52;6.93;;;28.40;79.60;;;;;;5147182;27;20296;-48
2021/11/10 07:16:09;;;;;;;10.95;7.00;;;28.40;79.50;;;;;;5147164;27;20020;-51
2021/11/10 07:18:36;;;;;;;11.60;6.93;;;28.40;79.50;;;;;;5147277;27;20020;-49
2021/11/10 07:21:03;;;;;;;11.15;6.95;;;28.40;79.60;;;;;;5147143;27;20030;-48
2021/11/10 07:23:29;;;;;;;12.18;6.88;;;28.40;80.10;;;;;;5146925;27;20315;-48
2021/11/10 07:25:56;;;;;;;15.40;7.07;;;28.40;79.80;;;;;;5146857;27;20094;-49
2021/11/10 07:28:22;;;;;;;12.48;6.65;;;28.40;79.80;;;;;;5146988;27;20027;-54
2021/11/10 07:30:49;;;;;;;17.25;7.57;;;28.40;79.80;;;;;;5146923;27;20339;-55
2021/11/10 07:33:16;;;;;;;13.27;6.78;;;28.40;79.90;;;;;;5146990;27;20078;-48
2021/11/10 07:35:43;;;;;;;12.63;7.28;;;28.30;80.00;;;;;;5146777;27;20203;-52
2021/11/10 07:38:11;;;;;;;13.63;7.35;;;28.30;79.90;;;;;;5146507;27;20023;-46
2021/11/10 07:40:38;;;;;;;15.57;7.28;;;28.30;79.70;;;;;;5146714;27;20015;-44
2021/11/10 07:43:05;;;;;;;11.38;6.90;;;28.30;79.80;;;;;;5146675;27;20049;-51
2021/11/10 07:45:37;;;;;;;12.55;6.60;;;28.30;79.80;;;;;;5146391;27;20023;-45
2021/11/10 07:48:06;;;;;;;16.70;7.03;;;28.30;80.00;;;;;;5146445;27;20067;-51
2021/11/10 07:50:34;;;;;;;13.40;7.32;;;28.30;80.00;;;;;;5146318;27;20046;-54
2021/11/10 07:53:01;;;;;;;10.38;7.07;;;28.30;80.00;;;;;;5146225;27;20118;-53
2021/11/10 07:55:28;;;;;;;17.55;6.90;;;28.30;80.10;;;;;;5146464;27;20022;-49
2021/11/10 07:57:55;;;;;;;12.10;6.80;;;28.30;80.10;;;;;;5146364;27;20019;-46
2021/11/10 08:00:23;;;;;;;17.70;7.07;;;28.30;80.00;;;;;;5145831;27;20050;-45
2021/11/10 08:02:50;;;;;;;13.52;6.93;;;28.30;79.90;;;;;;5146709;27;20057;-44
2021/11/10 08:05:18;;;;;;;15.13;6.75;;;28.30;80.00;;;;;;5146207;27;20043;-47
2021/11/10 08:07:45;;;;;;;13.15;6.60;;;28.30;80.10;;;;;;5146655;27;20027;-47
2021/11/10 08:10:15;;;;;;;19.08;6.78;;;28.30;80.10;;;;;;5145951;27;20059;-44
2021/11/10 08:12:42;;;;;;;16.55;7.38;;;28.30;80.30;;;;;;5146441;27;20047;-46
2021/11/10 08:15:11;;;;;;;11.10;6.60;;;28.30;80.30;;;;;;5146053;27;20027;-50
2021/11/10 08:17:39;;;;;;;11.20;6.93;;;28.30;80.40;;;;;;5146493;27;20090;-48
2021/11/10 08:20:08;;;;;;;11.43;6.28;;;28.20;80.30;;;;;;5145883;27;20327;-46
2021/11/10 08:22:36;;;;;;;12.10;6.90;;;28.20;80.30;;;;;;5146486;27;20023;-45
2021/11/10 08:25:03;;;;;;;10.70;7.00;;;28.20;80.30;;;;;;5145909;27;20023;-50
2021/11/10 08:27:31;;;;;;;10.63;6.30;;;28.20;80.30;;;;;;5146140;27;20031;-45
2021/11/10 08:29:57;;;;;;;12.88;6.95;;;28.20;80.40;;;;;;5145420;27;20059;-44
2021/11/10 08:32:24;;;;;;;11.18;6.63;;;28.20;80.50;;;;;;5145659;27;20090;-47
2021/11/10 08:34:50;;;;;;;14.23;6.90;;;28.20;80.50;;;;;;5144379;27;20022;-49
2021/11/10 08:37:17;;;;;;;11.13;7.00;;;28.20;80.60;;;;;;5145988;27;20211;-48
2021/11/10 08:39:43;;;;;;;14.20;7.47;;;28.20;80.70;;;;;;5145485;27;20241;-41
2021/11/10 08:42:10;;;;;;;15.73;7.05;;;28.20;80.80;;;;;;5145898;27;20326;-47
2021/11/10 08:44:41;;;;;;;9.02;6.75;;;28.20;80.90;;;;;;5145823;27;20042;-48
2021/11/10 08:47:07;;;;;;;11.13;6.80;;;28.10;80.90;;;;;;5144490;27;20064;-45
2021/11/10 08:49:35;;;;;;;11.60;6.85;;;28.10;81.00;;;;;;5145356;27;20192;-47
2021/11/10 08:52:02;;;;;;;10.27;6.38;;;28.10;81.10;;;;;;5145071;27;20043;-46
2021/11/10 08:54:30;;;;;;;12.75;7.25;;;28.10;81.20;;;;;;5145406;27;20068;-43
2021/11/10 08:57:00;;;;;;;12.80;7.60;;;28.10;81.20;;;;;;5145486;27;20103;-49
2021/11/10 08:59:27;;;;;;;12.68;7.40;;;28.10;81.30;;;;;;5145402;27;20074;-48
2021/11/10 09:01:55;;;;;;;10.63;6.85;;;28.10;81.40;;;;;;5145530;27;20027;-52
2021/11/10 09:04:22;;;;;;;10.68;7.13;;;28.10;81.40;;;;;;5145049;27;20034;-48
2021/11/10 09:06:49;;;;;;;12.88;6.47;;;28.10;81.60;;;;;;5145401;27;20311;-55
2021/11/10 09:09:17;;;;;;;10.45;6.63;;;28.10;81.60;;;;;;5145250;27;20204;-52
2021/11/10 09:11:46;;;;;;;11.43;6.88;;;28.00;81.60;;;;;;5144163;27;20322;-54
2021/11/10 09:14:12;;;;;;;13.02;6.93;;;28.00;81.70;;;;;;5144832;27;20030;-52
2021/11/10 09:16:39;;;;;;;14.75;7.35;;;28.10;81.70;;;;;;5145264;27;20064;-49
2021/11/10 09:19:06;;;;;;;15.95;6.65;;;28.00;81.70;;;;;;5144907;27;20015;-45
2021/11/10 09:21:33;;;;;;;11.80;6.72;;;28.00;81.70;;;;;;5145143;27;20027;-47
2021/11/10 09:24:00;;;;;;;16.70;7.03;;;28.00;81.70;;;;;;5144964;27;20063;-49
2021/11/10 09:26:26;;;;;;;13.13;7.20;;;28.00;81.80;;;;;;5145004;27;20027;-50
2021/11/10 09:28:54;;;;;;;11.65;7.38;;;28.00;81.90;;;;;;5144910;27;20078;-51
2021/11/10 09:31:22;;;;;;;14.57;7.10;;;28.00;81.90;;;;;;5144916;27;20027;-44
2021/11/10 09:33:52;;;;;;;12.32;6.97;;;28.00;82.00;;;;;;5144671;27;20015;-45
2021/11/10 09:36:19;;;;;;;10.85;7.53;;;28.00;82.00;;;;;;5144896;28;20028;-50
2021/11/10 09:38:46;;;;;;;9.43;6.53;;;28.00;82.00;;;;;;5144728;28;20022;-48
2021/11/10 09:41:13;;;;;;;14.18;7.53;;;28.00;82.00;;;;;;5144554;28;20242;-47
2021/11/10 09:43:42;;;;;;;15.85;7.55;;;28.00;82.10;;;;;;5144674;27;20050;-46
2021/11/10 09:46:10;;;;;;;12.32;7.28;;;27.90;82.00;;;;;;5144870;28;20038;-51
2021/11/10 09:48:37;;;;;;;11.60;7.50;;;27.90;82.10;;;;;;5144565;27;20015;-54
2021/11/10 09:51:05;;;;;;;14.25;7.57;;;27.90;82.10;;;;;;5144567;28;20027;-44
2021/11/10 09:53:33;;;;;;;14.27;6.90;;;27.90;82.20;;;;;;5144688;27;20021;-42
2021/11/10 09:56:00;;;;;;;14.70;7.80;;;27.90;82.20;;;;;;5144762;27;20023;-45
2021/11/10 09:58:27;;;;;;;16.55;7.53;;;27.90;82.20;;;;;;5144711;27;20082;-45
2021/11/10 10:00:58;;;;;;;12.82;7.53;;;27.90;82.30;;;;;;5144588;27;20031;-45
2021/11/10 10:03:25;;;;;;;13.90;7.75;;;27.90;82.20;;;;;;5144429;27;20212;-42
2021/11/10 10:05:54;;;;;;;13.85;7.82;;;27.90;82.30;;;;;;5144808;27;20050;-51
2021/11/10 10:08:23;;;;;;;15.25;8.15;;;27.90;82.30;;;;;;5144519;27;20086;-44
2021/11/10 10:10:50;;;;;;;14.43;8.73;;;27.90;82.40;;;;;;5144247;27;20047;-50
2021/11/10 10:13:18;;;;;;;20.23;8.52;;;27.90;82.40;;;;;;5144787;27;20307;-47
2021/11/10 10:15:48;;;;;;;18.58;8.55;;;27.90;82.50;;;;;;5144401;27;20063;-43
2021/11/10 10:18:25;;;;;;;38.20;9.00;;;27.90;82.60;;;;;;5144306;27;20015;-43
2021/11/10 10:21:09;;;;;;;27.40;8.35;;;27.90;82.80;;;;;;5144590;27;20244;-49
2021/11/10 10:23:40;;;;;;;20.67;8.32;;;27.90;82.80;;;;;;5146171;27;20103;-54
2021/11/10 10:26:12;;;;;;;19.88;7.95;;;27.90;82.80;;;;;;5148140;27;20053;-46
2021/11/10 10:29:05;;;;;;;16.40;7.85;;;27.80;82.80;;;;;;5148306;27;20230;-46
2021/11/10 10:31:32;;;;;;;17.05;8.13;;;27.80;82.90;;;;;;5148252;27;20308;-47
2021/11/10 10:34:04;;;;;;;17.83;7.88;;;27.80;83.00;;;;;;5147947;27;20015;-49
2021/11/10 10:36:34;;;;;;;16.95;8.20;;;27.80;83.00;;;;;;5148138;27;20030;-44
2021/11/10 10:39:05;;;;;;;19.05;8.52;;;27.80;83.00;;;;;;5147751;27;20314;-50
2021/11/10 10:41:54;;;;;;;23.05;8.23;;;27.80;83.10;;;;;;5148182;27;20027;-50
2021/11/10 10:44:27;;;;;;;14.23;8.80;;;27.80;83.20;;;;;;5147679;27;20027;-45
2021/11/10 10:47:01;;;;;;;14.75;7.80;;;27.80;83.20;;;;;;5148095;27;20020;-53
2021/11/10 10:49:44;;;;;;;17.70;8.43;;;27.80;83.30;;;;;;5147798;27;20019;-51
2021/11/10 10:52:19;;;;;;;16.95;8.00;;;27.80;83.20;;;;;;5147539;27;20039;-50
2021/11/10 10:54:50;;;;;;;23.50;9.13;;;27.80;83.30;;;;;;5147578;27;20011;-53
2021/11/10 10:57:21;;;;;;;17.50;8.02;;;27.80;83.40;;;;;;5147918;27;20038;-52
2021/11/10 11:00:10;;;;;;;17.92;8.70;;;27.80;83.40;;;;;;5147550;27;20050;-52
2021/11/10 11:02:37;;;;;;;21.67;8.70;;;27.80;83.40;;;;;;5147168;27;20031;-51
2021/11/10 11:05:04;;;;;;;19.98;8.20;;;27.80;83.50;;;;;;5147426;27;20018;-55
2021/11/10 11:07:31;;;;;;;21.08;8.35;;;27.80;83.50;;;;;;5147624;27;20027;-52
2021/11/10 11:09:58;;;;;;;18.35;9.00;;;27.80;83.50;;;;;;5146357;27;20023;-54
2021/11/10 11:12:31;;;;;;;19.13;8.90;;;27.80;83.60;;;;;;5147650;27;20083;-45
2021/11/10 11:15:34;;;;;;;20.02;8.63;;;27.80;83.60;;;;;;5147094;27;20027;-46
2021/11/10 11:18:00;;;;;;;;;;;27.80;83.60;;;;;;5147476;27;20125;-46
2021/11/10 11:20:32;;;;;;;20.52;8.45;;;27.80;83.60;;;;;;5147057;27;19970;-45
2021/11/10 11:22:59;;;;;;;;;;;27.80;83.70;;;;;;5147486;27;20031;-48
2021/11/10 11:25:34;;;;;;;17.35;7.75;;;27.90;83.90;;;;;;5146752;27;19900;-50
2021/11/10 11:28:09;;;;;;;17.65;8.30;;;27.80;84.10;;;;;;5146944;27;20112;-46
2021/11/10 11:30:40;;;;;;;18.15;8.23;;;27.90;84.10;;;;;;5146500;27;20027;-52
2021/11/10 11:33:16;;;;;;;18.60;8.52;;;27.90;84.10;;;;;;5147034;27;20027;-43
2021/11/10 11:36:10;;;;;;;23.35;8.73;;;27.90;84.10;;;;;;5145814;27;20011;-43
2021/11/10 11:38:39;;;;;;;15.73;8.05;;;28.00;84.10;;;;;;5145386;27;20151;-47
2021/11/10 11:41:09;;;;;;;19.30;8.43;;;27.90;84.00;;;;;;5146864;27;20023;-52
2021/11/10 11:43:36;;;;;;;22.77;8.63;;;28.00;84.50;;;;;;5146675;27;20366;-43
2021/11/10 11:46:04;;;;;;;22.58;8.35;;;28.00;84.00;;;;;;5146749;27;20219;-40
2021/11/10 11:48:32;;;;;;;17.88;8.18;;;28.00;84.00;;;;;;5146459;27;20034;-43
2021/11/10 11:51:03;;;;;;;14.93;7.75;;;28.10;84.00;;;;;;5146492;27;20038;-42
2021/11/10 11:53:42;;;;;;;19.90;7.95;;;28.10;84.10;;;;;;5146644;27;20039;-54
2021/11/10 11:56:12;;;;;;;25.08;8.60;;;28.10;84.10;;;;;;5146265;27;20019;-48
2021/11/10 11:58:47;;;;;;;39.55;18.80;;;28.10;84.20;;;;;;5146355;27;20023;-54
2021/11/10 12:01:16;;;;;;;23.60;10.05;;;28.20;84.20;;;;;;5146298;27;20025;-47
2021/11/10 12:03:51;;;;;;;25.40;9.40;;;28.20;84.40;;;;;;5146217;27;20019;-47
2021/11/10 12:06:19;;;;;;;23.02;9.23;;;28.20;84.20;;;;;;5146472;27;20019;-45
2021/11/10 12:08:51;;;;;;;19.98;8.88;;;28.20;84.10;;;;;;5146426;27;20090;-45
2021/11/10 12:11:30;;;;;;;17.85;8.52;;;28.20;84.10;;;;;;5146222;27;20038;-50
2021/11/10 12:14:33;;;;;;;26.27;9.63;;;28.30;84.20;;;;;;5145897;27;20019;-47
2021/11/10 12:17:12;;;;;;;18.45;8.38;;;28.30;84.10;;;;;;5122751;27;20220;-48
2021/11/10 12:19:56;;;;;;;23.70;8.65;;;28.30;84.00;;;;;;5145958;27;20019;-44
2021/11/10 12:22:23;;;;;;;20.65;8.10;;;28.30;83.90;;;;;;5146188;27;20078;-46
2021/11/10 12:24:54;;;;;;;16.05;7.65;;;28.40;84.00;;;;;;5145885;27;20128;-52
2021/11/10 12:27:33;;;;;;;17.23;7.47;;;28.30;83.90;;;;;;5145673;27;20011;-49
2021/11/10 12:30:04;;;;;;;20.58;8.57;;;28.40;84.10;;;;;;5145883;27;20034;-51
2021/11/10 12:32:30;;;;;;;22.10;7.90;;;28.40;84.00;;;;;;5145718;27;20011;-51
2021/11/10 12:34:59;;;;;;;17.70;7.70;;;28.30;84.00;;;;;;5145535;27;20015;-49
2021/11/10 12:37:34;;;;;;;19.23;8.25;;;28.40;84.20;;;;;;5145616;27;20015;-46
2021/11/10 12:40:17;;;;;;;23.05;8.02;;;28.40;84.30;;;;;;5145583;27;20352;-47
2021/11/10 12:42:59;;;;;;;27.38;8.68;;;28.40;84.50;;;;;;5145461;27;20021;-41
2021/11/10 12:45:39;;;;;;;18.67;8.10;;;28.40;84.40;;;;;;5145208;27;20060;-42